Time;durP1;ratioP1;P1;durP2;ratioP2;P2;SDS_P1;SDS_P2;PMS_P1;PMS_P2;Temp;Humidity;BMP_temperature;BMP_pressure;BME280_temperature;BME280_humidity;BME280_pressure;Samples;Min_cycle;Max_cycle;Signal;HPM_P1;HPM_P2
2022/09/20 00:01:27;;;;;;;3.45;2.95;;;;;;;11.41;100.00;98656.13;5174218;27;20085;-55
2022/09/20 00:03:55;;;;;;;5.25;3.25;;;;;;;11.81;100.00;98653.59;5174744;27;20046;-56
2022/09/20 00:06:23;;;;;;;3.83;2.67;;;;;;;11.66;100.00;98672.75;5174089;27;20046;-56
2022/09/20 00:08:49;;;;;;;2.78;2.58;;;;;;;11.76;100.00;98665.72;5174591;27;20082;-55
2022/09/20 00:11:18;;;;;;;4.93;2.53;;;;;;;11.89;100.00;98679.94;5174029;27;20046;-52
2022/09/20 00:13:45;;;;;;;4.78;2.33;;;;;;;11.97;100.00;98678.81;5173986;27;20046;-56
2022/09/20 00:16:14;;;;;;;2.78;2.55;;;;;;;11.89;100.00;98677.97;5173881;27;20136;-55
2022/09/20 00:18:41;;;;;;;3.55;2.33;;;;;;;11.91;100.00;98675.63;5173787;27;20071;-57
2022/09/20 00:21:15;;;;;;;3.95;2.50;;;;;;;11.44;100.00;98666.34;5174083;27;20046;-55
2022/09/20 00:23:41;;;;;;;4.28;2.53;;;;;;;11.91;100.00;98672.13;5173710;27;20137;-55
2022/09/20 00:26:07;;;;;;;2.58;2.38;;;;;;;11.64;100.00;98674.31;5174077;27;20098;-56
2022/09/20 00:28:33;;;;;;;4.43;2.30;;;;;;;11.77;100.00;98684.56;5173749;27;20612;-57
2022/09/20 00:31:00;;;;;;;2.80;2.60;;;;;;;11.60;100.00;98689.97;5173817;27;20091;-55
2022/09/20 00:35:06;;;;;;;2.60;2.30;;;;;;;11.35;100.00;98676.06;5173675;27;20046;-56
2022/09/20 00:36:13;;;;;;;26.25;3.30;;;;;;;11.44;100.00;98674.56;5173942;27;20046;-54
2022/09/20 00:38:39;;;;;;;3.92;2.67;;;;;;;11.41;100.00;98674.56;5173910;27;20054;-56
2022/09/20 00:41:06;;;;;;;2.72;2.42;;;;;;;11.62;100.00;98682.91;5174155;27;20497;-54
2022/09/20 00:43:37;;;;;;;3.03;2.35;;;;;;;11.28;100.00;98674.06;5173688;27;20069;-53
2022/09/20 00:46:05;;;;;;;4.40;2.40;;;;;;;11.45;100.00;98676.13;5173710;27;20050;-56
2022/09/20 00:48:33;;;;;;;2.65;2.45;;;;;;;11.49;100.00;98673.41;5172956;27;20397;-55
2022/09/20 00:51:07;;;;;;;2.58;2.38;;;;;;;11.82;100.00;98682.63;5173368;27;20050;-56
2022/09/20 00:53:38;;;;;;;4.53;2.47;;;;;;;11.68;100.00;98686.09;5173569;27;20046;-55
2022/09/20 00:56:08;;;;;;;4.30;2.30;;;;;;;11.50;100.00;98686.00;5173410;27;20068;-56
2022/09/20 00:58:40;;;;;;;2.78;2.50;;;;;;;11.45;100.00;98692.59;5173206;27;20050;-56
2022/09/20 01:01:07;;;;;;;2.50;2.30;;;;;;;11.66;100.00;98682.94;5173303;27;20054;-53
2022/09/20 01:03:37;;;;;;;3.03;1.90;;;;;;;11.48;100.00;98688.31;5173156;27;20050;-55
2022/09/20 01:06:08;;;;;;;2.75;2.22;;;;;;;11.51;100.00;98693.03;5173205;27;20046;-56
2022/09/20 01:08:36;;;;;;;2.72;2.30;;;;;;;11.53;100.00;98690.72;5173117;27;20050;-53
2022/09/20 01:11:02;;;;;;;2.72;2.20;;;;;;;11.62;100.00;98695.84;5173042;27;20046;-56
2022/09/20 01:13:29;;;;;;;3.25;2.42;;;;;;;11.51;100.00;98699.31;5172969;27;20125;-56
2022/09/20 01:15:57;;;;;;;2.25;2.08;;;;;;;11.75;100.00;98697.88;5173299;27;20497;-54
2022/09/20 01:18:24;;;;;;;3.97;2.53;;;;;;;11.89;100.00;98701.91;5172860;27;20053;-56
2022/09/20 01:20:52;;;;;;;3.42;2.47;;;;;;;11.72;100.00;98695.91;5172847;27;20515;-54
2022/09/20 01:23:30;;;;;;;3.72;2.42;;;;;;;11.76;100.00;98693.19;5172898;27;20046;-54
2022/09/20 01:26:11;;;;;;;6.13;2.65;;;;;;;11.69;100.00;98691.19;5172683;27;20046;-54
2022/09/20 01:28:41;;;;;;;2.80;2.10;;;;;;;11.76;100.00;98694.00;5173059;27;20078;-56
2022/09/20 01:31:10;;;;;;;3.50;2.30;;;;;;;11.71;100.00;98694.34;5172733;27;20397;-56
2022/09/20 01:33:44;;;;;;;2.95;2.30;;;;;;;11.46;100.00;98701.63;5172943;27;20832;-56
2022/09/20 01:36:15;;;;;;;2.63;2.30;;;;;;;11.76;100.00;98698.66;5172583;27;20788;-52
2022/09/20 01:38:50;;;;;;;3.22;2.33;;;;;;;11.66;100.00;98694.72;5172492;27;20054;-56
2022/09/20 01:41:23;;;;;;;2.55;2.35;;;;;;;11.69;100.00;98695.88;5172642;27;20086;-54
2022/09/20 01:43:54;;;;;;;2.92;2.45;;;;;;;11.42;100.00;98698.06;5172569;27;20130;-53
2022/09/20 01:46:29;;;;;;;5.72;3.15;;;;;;;11.49;100.00;98698.13;5172798;27;20089;-55
2022/09/20 01:49:04;;;;;;;6.85;3.35;;;;;;;11.81;100.00;98703.81;5172318;27;20050;-53
2022/09/20 01:52:10;;;;;;;4.28;2.92;;;;;;;11.74;100.00;98701.03;5172430;27;20098;-53
2022/09/20 01:55:17;;;;;;;4.38;3.30;;;;;;;11.75;100.00;98702.59;5172557;27;20654;-53
2022/09/20 01:58:31;;;;;;;6.40;3.70;;;;;;;11.47;100.00;98708.72;5172494;27;20416;-54
2022/09/20 02:01:35;;;;;;;4.32;3.47;;;;;;;11.71;100.00;98707.28;5172457;27;20459;-57
2022/09/20 02:04:32;;;;;;;8.60;4.40;;;;;;;11.61;100.00;98699.78;5172211;27;20043;-57
2022/09/20 02:07:31;;;;;;;5.35;3.60;;;;;;;11.50;100.00;98707.94;5172140;27;20042;-55
2022/09/20 02:10:16;;;;;;;6.80;3.00;;;;;;;11.37;100.00;98699.22;5140045;27;20053;-55
2022/09/20 02:12:54;;;;;;;4.00;3.58;;;;;;;11.62;100.00;98701.34;5172122;27;20092;-57
2022/09/20 02:15:40;;;;;;;6.07;3.65;;;;;;;11.48;100.00;98707.53;5172147;27;20481;-58
2022/09/20 02:18:26;;;;;;;7.43;3.72;;;;;;;11.34;100.00;98705.47;5172189;27;20095;-57
2022/09/20 02:21:02;;;;;;;6.63;4.05;;;;;;;11.32;100.00;98705.84;5171968;27;20056;-55
2022/09/20 02:23:40;;;;;;;6.45;3.67;;;;;;;11.59;100.00;98700.13;5172200;27;20102;-56
2022/09/20 02:26:31;;;;;;;3.90;3.60;;;;;;;11.46;100.00;98704.38;5172118;27;20046;-55
2022/09/20 02:29:11;;;;;;;5.60;4.00;;;;;;;11.29;100.00;98697.59;5171729;27;20061;-57
2022/09/20 02:32:10;;;;;;;5.03;3.92;;;;;;;11.38;100.00;98697.25;5171970;27;20428;-54
2022/09/20 02:34:58;;;;;;;5.47;3.92;;;;;;;11.45;100.00;98695.34;5171840;27;20565;-53
2022/09/20 02:37:44;;;;;;;6.60;4.45;;;;;;;11.20;100.00;98686.16;5171881;27;20552;-54
2022/09/20 02:40:24;;;;;;;6.47;4.65;;;;;;;11.08;100.00;98690.75;5171994;27;20050;-56
2022/09/20 02:43:01;;;;;;;11.85;5.05;;;;;;;10.99;100.00;98673.06;5171742;27;20436;-57
2022/09/20 02:45:34;;;;;;;6.18;5.13;;;;;;;11.24;100.00;98657.56;5172082;27;20046;-54
2022/09/20 02:48:03;;;;;;;8.52;5.30;;;;;;;11.43;100.00;98692.22;5171745;27;20057;-56
2022/09/20 02:50:40;;;;;;;8.00;4.93;;;;;;;11.44;100.00;98693.78;5171878;27;20428;-59
2022/09/20 02:53:18;;;;;;;10.55;5.32;;;;;;;11.45;100.00;98705.53;5171736;27;20050;-56
2022/09/20 02:56:02;;;;;;;8.27;5.25;;;;;;;11.29;100.00;98709.34;5171448;27;20115;-56
2022/09/20 02:58:39;;;;;;;8.07;5.50;;;;;;;11.19;100.00;98715.53;5171481;27;20046;-57
2022/09/20 03:01:17;;;;;;;7.93;5.32;;;;;;;11.11;100.00;98686.47;5171553;27;20049;-56
2022/09/20 03:03:50;;;;;;;7.25;5.30;;;;;;;11.05;100.00;98679.78;5171060;27;20046;-56
2022/09/20 03:06:27;;;;;;;8.18;5.60;;;;;;;11.08;100.00;98665.28;5171300;27;20046;-56
2022/09/20 03:09:01;;;;;;;8.02;5.35;;;;;;;10.80;100.00;98658.41;5171592;27;20092;-57
2022/09/20 03:11:34;;;;;;;7.90;5.43;;;;;;;11.19;100.00;98641.47;5172557;27;20046;-55
2022/09/20 03:14:14;;;;;;;13.25;5.90;;;;;;;11.09;100.00;98666.88;5175077;27;20057;-57
2022/09/20 03:16:59;;;;;;;11.13;5.80;;;;;;;11.21;100.00;98654.81;5175123;27;20050;-55
2022/09/20 03:19:38;;;;;;;12.95;6.40;;;;;;;11.19;100.00;98654.41;5174809;27;20077;-57
2022/09/20 03:22:17;;;;;;;8.98;6.05;;;;;;;11.21;100.00;98658.34;5174888;27;20046;-53
2022/09/20 03:24:57;;;;;;;13.05;6.63;;;;;;;11.17;100.00;98663.03;5174748;27;20144;-54
2022/09/20 03:27:32;;;;;;;11.32;6.88;;;;;;;11.08;100.00;98665.28;5174655;27;20050;-55
2022/09/20 03:30:14;;;;;;;10.70;6.43;;;;;;;11.01;100.00;98657.00;5174913;27;20149;-52
2022/09/20 03:32:54;;;;;;;10.75;7.50;;;;;;;11.05;100.00;98655.88;5174527;27;20050;-53
2022/09/20 03:35:35;;;;;;;12.50;7.43;;;;;;;10.92;100.00;98656.53;5175050;27;20057;-54
2022/09/20 03:38:20;;;;;;;14.23;7.43;;;;;;;11.04;100.00;98659.00;5174578;27;20060;-57
2022/09/20 03:41:15;;;;;;;12.02;7.20;;;;;;;11.26;100.00;98651.69;5174596;27;20474;-52
2022/09/20 03:43:55;;;;;;;9.27;6.63;;;;;;;10.97;100.00;98678.16;5161168;27;20046;-56
2022/09/20 03:46:26;;;;;;;10.32;7.03;;;;;;;11.31;100.00;98667.81;5174320;27;20132;-53
2022/09/20 03:49:46;;;;;;;12.10;6.93;;;;;;;11.42;100.00;98679.66;5174866;27;20050;-52
2022/09/20 03:52:29;;;;;;;12.80;7.68;;;;;;;11.37;100.00;98692.97;5133665;27;20058;-53
2022/09/20 03:55:34;;;;;;;11.10;7.72;;;;;;;11.38;100.00;98691.78;5174335;27;20042;-54
2022/09/20 03:58:19;;;;;;;11.23;8.07;;;;;;;11.03;100.00;98706.81;5171538;27;20200;-56
2022/09/20 04:01:00;;;;;;;15.23;8.13;;;;;;;11.14;100.00;98682.19;5174420;27;20489;-54
2022/09/20 04:03:40;;;;;;;11.55;7.75;;;;;;;11.12;100.00;98679.03;5174130;27;20421;-54
2022/09/20 04:06:34;;;;;;;14.80;8.95;;;;;;;10.89;100.00;98676.50;5174409;27;20050;-54
2022/09/20 04:09:19;;;;;;;12.90;9.43;;;;;;;11.12;100.00;98671.59;5174224;27;20054;-57
2022/09/20 04:11:58;;;;;;;14.25;8.63;;;;;;;10.98;100.00;98679.72;5173959;27;20050;-54
2022/09/20 04:14:37;;;;;;;17.13;9.48;;;;;;;10.96;100.00;98682.03;5174084;27;20531;-55
2022/09/20 04:17:17;;;;;;;14.23;8.98;;;;;;;10.87;100.00;98660.44;5174275;27;20043;-56
2022/09/20 04:19:50;;;;;;;17.67;11.23;;;;;;;11.02;100.00;98653.09;5174050;27;20053;-57
2022/09/20 04:22:20;;;;;;;17.00;9.80;;;;;;;11.02;100.00;98653.09;5173406;27;20046;-56
2022/09/20 04:24:53;;;;;;;15.10;10.13;;;;;;;11.17;100.00;98663.03;5173445;27;20513;-57
2022/09/20 04:27:24;;;;;;;21.00;10.35;;;;;;;10.69;100.00;98676.69;5173628;27;20050;-56
2022/09/20 04:29:57;;;;;;;16.52;10.32;;;;;;;10.84;100.00;98661.19;5173714;27;20650;-56
2022/09/20 04:32:28;;;;;;;18.08;10.60;;;;;;;11.03;100.00;98646.47;5173991;27;20043;-56
2022/09/20 04:37:47;;;;;;;17.83;11.23;;;;;;;10.93;100.00;98669.06;5173861;27;20073;-56
2022/09/20 04:40:25;;;;;;;15.25;10.65;;;;;;;10.95;100.00;98662.06;5173340;27;20051;-54
2022/09/20 04:43:30;;;;;;;19.92;11.52;;;;;;;10.92;100.00;98653.81;5173754;27;20056;-56
2022/09/20 04:46:05;;;;;;;;;;;;;;;10.61;100.00;98669.59;5173873;27;20042;-55
2022/09/20 04:49:09;;;;;;;18.55;11.50;;;;;;;10.94;100.00;98670.69;5173484;27;20343;-54
2022/09/20 04:52:07;;;;;;;17.17;10.40;;;;;;;11.07;100.00;98678.22;5138552;27;20057;-56
2022/09/20 04:55:23;;;;;;;18.05;12.35;;;;;;;11.17;100.00;98671.25;5173331;27;20042;-57
2022/09/20 04:58:22;;;;;;;17.58;11.15;;;;;;;11.22;100.00;98679.09;5173202;27;20052;-56
2022/09/20 05:01:16;;;;;;;17.55;11.27;;;;;;;11.08;100.00;98692.72;5173033;27;20052;-55
2022/09/20 05:04:07;;;;;;;15.90;9.70;;;;;;;11.19;100.00;98712.00;5172766;27;20046;-56
2022/09/20 05:06:56;;;;;;;20.85;11.60;;;;;;;10.98;100.00;98693.44;5173072;27;20095;-56
2022/09/20 05:09:42;;;;;;;16.65;10.30;;;;;;;10.77;100.00;98681.09;5173286;27;20425;-54
2022/09/20 05:12:33;;;;;;;18.48;10.40;;;;;;;11.15;100.00;98681.03;5173006;27;20050;-56
2022/09/20 05:15:22;;;;;;;16.17;9.93;;;;;;;10.94;100.00;98681.66;5172905;27;20425;-55
2022/09/20 05:18:31;;;;;;;19.05;11.27;;;;;;;11.46;100.00;98672.25;5172859;27;20106;-56
2022/09/20 05:21:17;;;;;;;15.13;9.77;;;;;;;11.50;100.00;98708.72;5172742;27;20140;-56
2022/09/20 05:24:03;;;;;;;24.20;11.00;;;;;;;11.66;100.00;98737.84;5172748;27;20052;-56
2022/09/20 05:26:43;;;;;;;18.55;10.82;;;;;;;11.49;100.00;98739.28;5172966;27;20106;-57
2022/09/20 05:29:17;;;;;;;21.63;12.98;;;;;;;11.37;100.00;98745.09;5172741;27;20501;-57
2022/09/20 05:31:50;;;;;;;18.23;12.05;;;;;;;11.64;100.00;98726.47;5173001;27;20381;-54
2022/09/20 05:34:26;;;;;;;16.17;10.73;;;;;;;11.53;100.00;98737.38;5172109;27;20046;-53
2022/09/20 05:37:01;;;;;;;19.58;11.13;;;;;;;11.78;100.00;98737.53;5172527;27;20050;-60
2022/09/20 05:39:37;;;;;;;16.15;10.95;;;;;;;11.63;100.00;98749.59;5172671;27;20053;-58
2022/09/20 05:42:19;;;;;;;16.35;10.85;;;;;;;11.83;100.00;98755.59;5170380;27;20061;-57
2022/09/20 05:45:09;;;;;;;22.98;12.57;;;;;;;11.65;100.00;98763.72;5172310;27;20421;-54
2022/09/20 05:47:44;;;;;;;19.75;11.27;;;;;;;11.63;100.00;98763.31;5172322;27;20497;-52
2022/09/20 05:50:37;;;;;;;18.73;10.90;;;;;;;11.49;100.00;98764.00;5172640;27;20077;-56
2022/09/20 05:53:35;;;;;;;16.52;10.55;;;;;;;11.65;100.00;98763.72;5172557;27;20049;-55
2022/09/20 05:56:18;;;;;;;24.27;11.85;;;;;;;11.65;100.00;98783.72;5172379;27;20051;-60
2022/09/20 05:58:54;;;;;;;17.90;11.68;;;;;;;11.76;100.00;98776.38;5172230;27;20058;-57
2022/09/20 06:01:26;;;;;;;18.15;10.98;;;;;;;11.72;100.00;98772.78;5172547;27;20042;-52
2022/09/20 06:03:58;;;;;;;21.30;11.88;;;;;;;11.61;100.00;98760.97;5172205;27;20076;-54
2022/09/20 06:06:31;;;;;;;23.58;12.43;;;;;;;11.78;100.00;98752.03;5172203;27;20050;-54
2022/09/20 06:09:22;;;;;;;22.23;12.95;;;;;;;11.64;100.00;98760.19;5172115;27;20050;-53
2022/09/20 06:12:23;;;;;;;23.45;13.50;;;;;;;11.67;100.00;98747.66;5171962;27;20055;-55
2022/09/20 06:15:00;;;;;;;21.75;13.00;;;;;;;11.52;100.00;98755.78;5171756;27;20046;-55
2022/09/20 06:17:34;;;;;;;19.77;12.85;;;;;;;11.50;100.00;98738.94;5172010;27;20050;-56
2022/09/20 06:20:14;;;;;;;20.53;13.07;;;;;;;11.40;100.00;98741.59;5171723;27;20084;-56
2022/09/20 06:22:44;;;;;;;26.60;14.32;;;;;;;11.44;100.00;98745.16;5171916;27;20322;-55
2022/09/20 06:25:17;;;;;;;28.23;14.45;;;;;;;11.25;100.00;98740.69;5172296;27;20150;-56
2022/09/20 06:27:50;;;;;;;26.60;13.88;;;;;;;11.64;100.00;98737.44;5171984;27;20549;-56
2022/09/20 06:30:18;;;;;;;23.80;13.32;;;;;;;11.41;100.00;98752.19;5171791;27;20057;-54
2022/09/20 06:32:56;;;;;;;24.42;14.52;;;;;;;11.54;100.00;98747.19;5172048;27;20535;-50
2022/09/20 06:35:26;;;;;;;27.48;14.50;;;;;;;11.77;100.00;98761.47;5171725;27;20424;-53
2022/09/20 06:43:40;;;;;;;29.83;14.60;;;;;;;11.76;100.00;98797.53;5170665;27;20081;-55
2022/09/20 06:46:07;;;;;;;28.48;14.70;;;;;;;11.69;100.00;98798.28;5171940;27;20067;-51
2022/09/20 06:48:38;;;;;;;26.95;15.48;;;;;;;11.88;100.00;98802.75;5175053;27;20050;-55
2022/09/20 06:51:05;;;;;;;20.10;14.00;;;;;;;11.77;100.00;98797.16;5175747;27;20085;-51
2022/09/20 06:53:36;;;;;;;24.77;13.63;;;;;;;11.80;100.00;98806.59;5175206;27;20057;-53
2022/09/20 06:56:03;;;;;;;29.02;13.95;;;;;;;11.77;100.00;98810.91;5175609;27;20052;-52
2022/09/20 06:58:29;;;;;;;26.25;13.40;;;;;;;11.74;100.00;98825.38;5175186;27;20052;-55
2022/09/20 07:00:55;;;;;;;30.95;16.25;;;;;;;11.93;100.00;98831.84;5175341;27;20110;-55
2022/09/20 07:03:21;;;;;;;30.50;16.58;;;;;;;11.94;100.00;98833.41;5175117;27;20054;-55
2022/09/20 07:05:48;;;;;;;29.40;14.30;;;;;;;11.96;100.00;98850.28;5175126;27;20095;-52
2022/09/20 07:08:15;;;;;;;25.17;15.30;;;;;;;12.07;100.00;98853.91;5175363;27;20053;-51
2022/09/20 07:10:42;;;;;;;22.83;14.65;;;;;;;12.18;100.00;98874.00;5175144;27;20141;-55
2022/09/20 07:13:12;;;;;;;18.27;10.63;;;;;;;12.23;100.00;98892.88;5175072;27;20046;-55
2022/09/20 07:15:40;;;;;;;20.90;13.07;;;;;;;12.12;100.00;98904.97;5174998;27;20098;-52
2022/09/20 07:18:07;;;;;;;23.52;13.80;;;;;;;12.29;100.00;98911.75;5175156;27;20050;-51
2022/09/20 07:20:33;;;;;;;28.08;13.90;;;;;;;12.28;100.00;98924.72;5174812;27;20054;-51
2022/09/20 07:23:00;;;;;;;25.58;12.95;;;;;;;12.21;100.00;98939.19;5174672;27;20050;-52
2022/09/20 07:25:26;;;;;;;21.08;13.95;;;;;;;12.35;100.00;98934.97;5174688;27;20046;-53
2022/09/20 07:27:53;;;;;;;21.00;13.55;;;;;;;12.48;100.00;98945.28;5174940;27;20054;-52
2022/09/20 07:30:20;;;;;;;26.65;12.15;;;;;;;12.49;100.00;98929.56;5174811;27;20413;-54
2022/09/20 07:32:46;;;;;;;20.50;11.30;;;;;;;12.73;100.00;98952.91;5174493;27;20042;-52
2022/09/20 07:35:13;;;;;;;20.10;11.98;;;;;;;12.83;100.00;98951.34;5174731;27;20053;-57
2022/09/20 07:37:40;;;;;;;20.77;11.07;;;;;;;12.63;100.00;98954.41;5174442;27;20569;-53
2022/09/20 07:40:09;;;;;;;19.73;11.57;;;;;;;12.32;100.00;98971.47;5174278;27;20050;-56
2022/09/20 07:42:35;;;;;;;17.02;10.60;;;;;;;12.54;100.00;98961.41;5174479;27;20053;-55
2022/09/20 07:45:02;;;;;;;17.27;9.57;;;;;;;12.61;100.00;98959.50;5174776;27;20054;-55
2022/09/20 07:47:34;;;;;;;19.83;11.07;;;;;;;12.73;100.00;98955.66;5174217;27;20129;-56
2022/09/20 07:50:03;;;;;;;15.43;10.20;;;;;;;12.10;100.00;98965.03;5174342;27;20558;-52
2022/09/20 07:52:29;;;;;;;18.70;10.13;;;;;;;12.54;100.00;98970.47;5174431;27;20047;-52
2022/09/20 07:54:55;;;;;;;24.00;9.85;;;;;;;12.63;100.00;98953.63;5174231;27;20046;-53
2022/09/20 07:57:22;;;;;;;21.73;10.57;;;;;;;12.10;100.00;98956.78;5174038;27;20180;-52
2022/09/20 07:59:48;;;;;;;19.20;10.45;;;;;;;12.26;100.00;98973.75;5173844;27;20050;-51
2022/09/20 08:02:15;;;;;;;14.90;9.10;;;;;;;12.55;100.00;98972.03;5173960;27;20042;-52
2022/09/20 08:04:42;;;;;;;17.80;10.85;;;;;;;12.16;100.00;98967.03;5174105;27;20058;-54
2022/09/20 08:07:08;;;;;;;17.40;9.50;;;;;;;12.50;100.00;98960.63;5174018;27;20053;-53
2022/09/20 08:09:34;;;;;;;19.50;11.30;;;;;;;12.35;100.00;98970.72;5173945;27;20046;-52
2022/09/20 08:12:01;;;;;;;16.45;10.05;;;;;;;12.42;100.00;98959.75;5173909;27;20154;-51
2022/09/20 08:14:27;;;;;;;19.30;10.82;;;;;;;12.48;100.00;98964.50;5173940;27;20501;-54
2022/09/20 08:16:58;;;;;;;17.17;10.18;;;;;;;12.29;100.00;98952.97;5174134;27;20054;-54
2022/09/20 08:19:25;;;;;;;15.52;9.45;;;;;;;12.75;100.00;98950.53;5173702;27;20042;-54
2022/09/20 08:21:52;;;;;;;20.90;10.02;;;;;;;12.58;100.00;98938.25;5173682;27;20061;-54
2022/09/20 08:24:19;;;;;;;15.57;9.60;;;;;;;12.92;100.00;98919.56;5173902;27;20049;-53
2022/09/20 08:26:47;;;;;;;17.88;9.95;;;;;;;13.04;100.00;98893.69;5173667;27;20046;-53
2022/09/20 08:29:14;;;;;;;18.55;11.05;;;;;;;13.08;100.00;98883.47;5173663;27;20053;-52
2022/09/20 08:31:41;;;;;;;13.48;9.02;;;;;;;12.36;100.00;98884.31;5173583;27;20057;-54
2022/09/20 08:34:09;;;;;;;19.23;9.68;;;;;;;12.47;100.00;98918.16;5173834;27;20051;-52
2022/09/20 08:36:40;;;;;;;28.30;12.35;;;;;;;12.46;100.00;98928.38;5173700;27;20064;-53
2022/09/20 08:39:07;;;;;;;22.38;13.93;;;;;;;12.41;100.00;98964.47;5173468;27;20057;-54
2022/09/20 08:41:37;;;;;;;31.20;14.05;;;;;;;12.80;100.00;98954.91;5173385;27;20050;-52
2022/09/20 08:44:10;;;;;;;30.67;16.15;;;;;;;12.85;100.00;98957.28;5173575;27;20433;-53
2022/09/20 08:46:39;;;;;;;31.75;15.93;;;;;;;12.68;100.00;98954.03;5173611;27;20050;-52
2022/09/20 08:49:07;;;;;;;26.48;15.43;;;;;;;12.99;100.00;98954.59;5173449;27;20141;-53
2022/09/20 08:51:38;;;;;;;32.78;17.20;;;;;;;13.23;100.00;98922.84;5173336;27;20493;-51
2022/09/20 08:54:09;;;;;;;38.60;21.58;;;;;;;13.14;100.00;98933.44;5173227;27;20052;-52
2022/09/20 08:56:36;;;;;;;39.33;20.58;;;;;;;13.25;100.00;98906.75;5173616;27;20046;-55
2022/09/20 08:59:03;;;;;;;35.60;17.38;;;;;;;12.68;100.00;98898.25;5173089;27;20469;-53
2022/09/20 09:01:32;;;;;;;33.72;14.23;;;;;;;13.46;100.00;98895.00;5173260;27;20430;-53
2022/09/20 09:04:10;;;;;;;22.65;13.27;;;;;;;13.82;100.00;98851.75;5172983;27;20053;-56
2022/09/20 09:06:38;;;;;;;19.85;11.52;;;;;;;13.92;100.00;98795.06;5172915;27;20058;-53
2022/09/20 09:09:05;;;;;;;22.48;11.60;;;;;;;14.09;100.00;98732.81;5172491;27;20536;-54
2022/09/20 09:11:32;;;;;;;22.25;11.10;;;;;;;13.86;100.00;98670.69;5172913;27;20099;-57
2022/09/20 09:14:03;;;;;;;21.30;10.32;;;;;;;13.89;100.00;98675.41;5173078;27;20491;-57
2022/09/20 09:16:32;;;;;;;16.63;9.95;;;;;;;13.89;100.00;98647.84;5172944;27;20050;-53
2022/09/20 09:19:36;;;;;;;15.52;8.80;;;;;;;13.00;100.00;98669.22;5173081;27;20046;-51
2022/09/20 09:22:04;;;;;;;19.40;10.82;;;;;;;12.47;100.00;98817.22;5171887;27;20106;-52
2022/09/20 09:24:31;;;;;;;16.73;8.95;;;;;;;12.60;100.00;98863.66;5172889;27;20136;-51
2022/09/20 09:27:07;;;;;;;14.77;9.75;;;;;;;12.60;100.00;98911.19;5172735;27;20054;-54
2022/09/20 09:29:33;;;;;;;24.08;14.45;;;;;;;13.11;100.00;98906.69;5172738;27;20061;-53
2022/09/20 09:32:20;;;;;;;20.95;13.02;;;;;;;12.69;100.00;98861.31;5172491;27;20050;-53
2022/09/20 09:34:46;;;;;;;19.38;9.88;;;;;;;12.77;100.00;98845.66;5172415;27;20046;-53
2022/09/20 09:37:23;;;;;;;18.45;10.80;;;;;;;13.41;100.00;98807.28;5172866;27;20050;-52
2022/09/20 09:40:06;;;;;;;18.95;10.15;;;;;;;13.64;100.00;98747.09;5172279;27;20042;-54
2022/09/20 09:42:32;;;;;;;19.23;8.98;;;;;;;13.75;100.00;98683.69;5172461;27;20141;-55
2022/09/20 09:45:10;;;;;;;15.88;8.40;;;;;;;13.60;100.00;98665.66;5172492;27;20046;-52
2022/09/20 09:47:37;;;;;;;13.40;7.70;;;;;;;13.29;100.00;98618.50;5172446;27;20042;-55
2022/09/20 09:50:04;;;;;;;26.27;8.27;;;;;;;13.50;100.00;98674.72;5172450;27;20050;-53
2022/09/20 09:52:34;;;;;;;17.23;8.98;;;;;;;13.15;100.00;98721.09;5172250;27;20046;-57
2022/09/20 09:55:02;;;;;;;19.73;8.30;;;;;;;12.91;100.00;98743.91;5172432;27;20422;-54
2022/09/20 09:57:42;;;;;;;14.57;7.32;;;;;;;12.63;100.00;98877.41;5172215;27;20050;-54
2022/09/20 10:00:12;;;;;;;9.73;5.68;;;;;;;12.84;100.00;98952.97;5172175;27;20048;-54
2022/09/20 10:03:24;;;;;;;11.80;6.47;;;;;;;12.48;100.00;99010.47;5171899;27;20493;-54
2022/09/20 10:06:03;;;;;;;10.60;6.70;;;;;;;13.24;100.00;99006.22;5161909;27;20056;-56
2022/09/20 10:08:40;;;;;;;11.40;6.93;;;;;;;12.72;100.00;99015.34;5172541;27;20046;-52
2022/09/20 10:11:19;;;;;;;10.68;7.15;;;;;;;12.88;100.00;99017.81;5172072;27;20046;-53
2022/09/20 10:13:57;;;;;;;8.57;6.78;;;;;;;12.93;100.00;99022.19;5172218;27;20042;-55
2022/09/20 10:16:32;;;;;;;16.38;7.15;;;;;;;13.23;100.00;99015.63;5171979;27;20042;-51
2022/09/20 10:19:06;;;;;;;12.80;11.45;;;;;;;13.42;100.00;99018.13;5172130;27;20054;-55
2022/09/20 10:21:44;;;;;;;13.30;7.82;;;;;;;13.82;100.00;99016.28;5173224;27;20046;-51
2022/09/20 10:24:29;;;;;;;15.98;7.22;;;;;;;12.79;100.00;98994.56;5175674;27;20050;-51
2022/09/20 10:27:10;;;;;;;16.60;8.20;;;;;;;13.63;100.00;98998.94;5156952;27;20081;-54
2022/09/20 10:30:05;;;;;;;10.77;7.35;;;;;;;12.89;100.00;98988.34;5175582;27;20128;-54
2022/09/20 10:32:53;;;;;;;12.98;7.40;;;;;;;13.79;100.00;99006.81;5159400;27;20145;-55
2022/09/20 10:35:34;;;;;;;9.77;5.15;;;;;;;13.00;100.00;98988.41;5175839;27;20497;-52
2022/09/20 10:38:22;;;;;;;11.10;5.97;;;;;;;13.32;100.00;98947.28;5158293;27;20042;-55
2022/09/20 10:44:37;;;;;;;13.13;6.45;;;;;;;13.29;100.00;98953.56;5175517;27;20412;-55
2022/09/20 10:47:12;;;;;;;14.70;6.40;;;;;;;13.60;100.00;98947.38;5157725;27;20046;-55
2022/09/20 10:49:42;;;;;;;11.25;7.00;;;;;;;13.64;100.00;98956.41;5174025;27;20054;-54
2022/09/20 10:52:30;;;;;;;13.50;5.82;;;;;;;13.51;100.00;98919.41;5155029;27;20106;-54
2022/09/20 10:55:19;;;;;;;8.68;7.72;;;;;;;13.89;100.00;98878.50;5150460;27;20054;-55
2022/09/20 10:58:09;;;;;;;7.38;5.15;;;;;;;13.87;100.00;98743.13;5175219;27;20046;-55
2022/09/20 11:00:47;;;;;;;11.77;6.10;;;;;;;14.00;100.00;98718.69;5158922;27;20401;-54
2022/09/20 11:03:28;;;;;;;9.50;5.10;;;;;;;14.34;100.00;98568.06;5174877;27;20095;-55
2022/09/20 11:06:07;;;;;;;7.60;4.93;;;;;;;14.43;100.00;98528.19;5174886;27;20050;-53
2022/09/20 11:08:37;;;;;;;8.73;5.28;;;;;;;14.38;100.00;98493.59;5174654;27;20500;-53
2022/09/20 11:11:11;;;;;;;9.82;6.07;;;;;;;13.92;100.00;98601.38;5174918;27;20061;-53
2022/09/20 11:13:44;;;;;;;;;;;;;;;13.67;100.00;98789.59;5157220;27;20046;-51
2022/09/20 11:16:23;;;;;;;11.30;5.80;;;;;;;14.46;100.00;98676.31;5156202;27;19929;-54
2022/09/20 11:18:58;;;;;;;11.98;5.38;;;;;;;14.23;100.00;98470.06;5155968;27;20126;-54
2022/09/20 11:21:31;;;;;;;9.30;5.90;;;;;;;14.20;100.00;98451.59;5174571;27;20137;-50
2022/09/20 11:24:04;;;;;;;8.50;7.03;;;;;;;14.12;100.00;98368.16;5156322;27;20086;-50
2022/09/20 11:26:37;;;;;;;8.32;4.65;;;;;;;14.18;100.00;98416.16;5156999;27;20678;-54
2022/09/20 11:29:13;;;;;;;7.60;4.78;;;;;;;14.28;100.00;98260.13;5156084;27;20061;-55
2022/09/20 11:31:43;;;;;;;6.30;4.78;;;;;;;14.29;100.00;98157.69;5173949;27;20050;-53
2022/09/20 11:34:16;;;;;;;10.80;4.28;;;;;;;13.84;100.00;98170.84;5174402;27;20151;-52
2022/09/20 11:36:51;;;;;;;10.45;4.72;;;;;;;14.08;100.00;98284.75;5174114;27;20051;-54
2022/09/20 11:39:24;;;;;;;10.10;4.38;;;;;;;14.85;100.00;98195.16;5174593;27;20102;-56
2022/09/20 11:41:54;;;;;;;4.47;3.90;;;;;;;15.14;100.00;98049.22;5174318;27;20054;-55
2022/09/20 11:44:21;;;;;;;3.35;2.95;;;;;;;14.39;100.00;97956.69;5174347;27;20524;-53
2022/09/20 11:46:54;;;;;;;5.07;2.80;;;;;;;14.68;100.00;97854.94;5174479;27;20079;-54
2022/09/20 11:49:26;;;;;;;4.75;3.40;;;;;;;15.34;100.00;97817.28;5174176;27;20520;-56
2022/09/20 11:52:20;;;;;;;4.30;3.20;;;;;;;15.16;100.00;97698.97;5174113;27;20050;-55
2022/09/20 11:55:10;;;;;;;3.38;2.78;;;;;;;15.02;100.00;97725.72;5173937;27;20524;-55
2022/09/20 11:57:37;;;;;;;3.83;2.78;;;;;;;15.13;100.00;97722.72;5174329;27;20046;-51
2022/09/20 12:00:07;;;;;;;2.95;2.60;;;;;;;15.49;100.00;97669.38;5174070;27;20047;-54
2022/09/20 12:02:37;;;;;;;5.07;2.85;;;;;;;15.21;100.00;97684.66;5174469;27;20093;-52
2022/09/20 12:05:05;;;;;;;5.30;3.22;;;;;;;15.21;100.00;97681.91;5174257;27;20046;-57
2022/09/20 12:07:35;;;;;;;4.65;3.08;;;;;;;15.53;100.00;97675.59;5173952;27;20082;-54
2022/09/20 12:10:07;;;;;;;3.58;2.88;;;;;;;15.35;100.00;97676.03;5173969;27;20081;-55